createdAt,value
2023-05-13T00:00:29.033Z,9.72
2023-05-13T00:02:55.463Z,9.70
2023-05-13T00:05:22.335Z,9.63
2023-05-13T00:07:48.847Z,9.62
2023-05-13T00:10:15.232Z,9.62
2023-05-13T00:12:41.583Z,9.57
2023-05-13T00:15:07.922Z,9.57
2023-05-13T00:17:34.691Z,9.56
2023-05-13T00:20:01.253Z,9.55
2023-05-13T00:22:27.645Z,9.58
2023-05-13T00:24:54.073Z,9.50
2023-05-13T00:27:20.774Z,9.44
2023-05-13T00:29:53.861Z,9.41
2023-05-13T00:32:20.375Z,9.40
2023-05-13T00:34:48.945Z,9.43
2023-05-13T00:37:15.752Z,9.46
2023-05-13T00:39:45.859Z,9.42
2023-05-13T00:42:14.794Z,9.47
2023-05-13T00:44:41.167Z,9.37
2023-05-13T00:47:09.573Z,9.36
2023-05-13T00:49:36.261Z,9.23
2023-05-13T00:52:02.669Z,9.16
2023-05-13T00:54:29.066Z,9.17
2023-05-13T00:56:55.768Z,9.14
2023-05-13T00:59:22.643Z,9.02
2023-05-13T01:01:51.396Z,8.99
2023-05-13T01:04:17.893Z,9.04
2023-05-13T01:06:44.222Z,9.03
2023-05-13T01:09:11.232Z,9.00
2023-05-13T01:11:38.637Z,8.98
2023-05-13T01:14:04.990Z,9.00
2023-05-13T01:16:31.389Z,9.02
2023-05-13T01:19:02.456Z,9.02
2023-05-13T01:21:29.414Z,9.02
2023-05-13T01:23:57.347Z,9.00
2023-05-13T01:26:23.885Z,9.02
2023-05-13T01:28:55.756Z,9.00
2023-05-13T01:31:29.629Z,8.90
2023-05-13T01:33:56.422Z,8.82
2023-05-13T01:36:23.700Z,8.76
2023-05-13T01:38:53.164Z,8.71
2023-05-13T01:41:19.792Z,8.72
2023-05-13T01:43:46.337Z,8.67
2023-05-13T01:46:13.141Z,8.67
2023-05-13T01:48:47.392Z,8.64
2023-05-13T01:51:13.888Z,8.61
2023-05-13T01:53:40.298Z,8.65
2023-05-13T01:56:06.730Z,8.65
2023-05-13T01:58:33.318Z,8.62
2023-05-13T02:00:59.698Z,8.57
2023-05-13T02:03:26.515Z,8.57
2023-05-13T02:05:53.077Z,8.60
2023-05-13T02:08:19.764Z,8.62
2023-05-13T02:10:46.346Z,8.66
2023-05-13T02:13:12.738Z,8.71
2023-05-13T02:15:39.445Z,8.75
2023-05-13T02:18:05.887Z,8.80
2023-05-13T02:20:32.341Z,8.79
2023-05-13T02:22:59.198Z,8.77
2023-05-13T02:25:26.430Z,8.73
2023-05-13T02:27:53.028Z,8.74
2023-05-13T02:30:19.635Z,8.77
2023-05-13T02:32:47.435Z,8.78
2023-05-13T02:35:13.853Z,8.78
2023-05-13T02:37:40.244Z,8.82
2023-05-13T02:40:06.645Z,8.92
2023-05-13T02:42:33.189Z,8.91
2023-05-13T02:45:05.203Z,8.95
2023-05-13T02:47:31.753Z,8.96
2023-05-13T02:49:58.192Z,8.97
2023-05-13T02:52:24.890Z,8.98
2023-05-13T02:54:51.281Z,9.05
2023-05-13T02:57:17.691Z,9.08
2023-05-13T02:59:44.094Z,9.12
2023-05-13T03:02:10.614Z,9.17
2023-05-13T03:04:39.540Z,9.19
2023-05-13T03:07:06.031Z,9.23
2023-05-13T03:09:33.593Z,9.25
2023-05-13T03:12:02.081Z,9.29
2023-05-13T03:14:28.470Z,9.34
2023-05-13T03:16:57.644Z,9.37
2023-05-13T03:19:24.365Z,9.40
2023-05-13T03:21:50.947Z,9.42
2023-05-13T03:24:17.338Z,9.50
2023-05-13T03:26:47.665Z,9.53
2023-05-13T03:29:14.036Z,9.51
2023-05-13T03:31:43.077Z,9.40
2023-05-13T03:34:09.497Z,9.33
2023-05-13T03:36:35.878Z,9.38
2023-05-13T03:39:10.256Z,9.40
2023-05-13T03:41:37.684Z,9.37
2023-05-13T03:44:04.246Z,9.41
2023-05-13T03:46:30.888Z,9.51
2023-05-13T03:48:57.226Z,9.55
2023-05-13T03:51:23.558Z,9.52
2023-05-13T03:53:50.404Z,9.57
2023-05-13T03:56:16.809Z,9.60
2023-05-13T03:58:44.510Z,9.65
2023-05-13T04:01:10.894Z,9.72
2023-05-13T04:03:37.227Z,9.77
2023-05-13T04:06:03.769Z,9.84
2023-05-13T04:08:30.168Z,9.90
2023-05-13T04:10:58.857Z,10.01
2023-05-13T04:13:25.316Z,10.04
2023-05-13T04:15:51.991Z,9.99
2023-05-13T04:18:18.557Z,10.00
2023-05-13T04:20:45.031Z,9.96
2023-05-13T04:23:11.639Z,10.02
2023-05-13T04:25:38.334Z,10.04
2023-05-13T04:28:04.674Z,10.07
2023-05-13T04:30:33.391Z,10.10
2023-05-13T04:33:00.509Z,10.14
2023-05-13T04:35:27.065Z,10.19
2023-05-13T04:37:53.502Z,10.25
2023-05-13T04:40:19.992Z,10.25
2023-05-13T04:42:46.656Z,10.26
2023-05-13T04:45:14.156Z,10.31
2023-05-13T04:47:42.877Z,10.36
2023-05-13T04:50:09.380Z,10.41
2023-05-13T04:52:36.041Z,10.42
2023-05-13T04:55:02.430Z,10.45
2023-05-13T04:57:28.787Z,10.49
2023-05-13T04:59:55.473Z,10.50
2023-05-13T05:02:22.881Z,10.52
2023-05-13T05:04:49.379Z,10.46
2023-05-13T05:07:15.923Z,10.52
2023-05-13T05:09:44.761Z,10.52
2023-05-13T05:12:18.505Z,10.45
2023-05-13T05:14:44.863Z,10.41
2023-05-13T05:17:11.642Z,10.53
2023-05-13T05:19:38.042Z,10.61
2023-05-13T05:22:04.643Z,10.70
2023-05-13T05:24:31.562Z,10.76
2023-05-13T05:26:58.481Z,10.81
2023-05-13T05:29:24.838Z,10.91
2023-05-13T05:31:52.438Z,10.98
2023-05-13T05:34:18.799Z,11.10
2023-05-13T05:36:45.179Z,11.19
2023-05-13T05:39:11.560Z,11.27
2023-05-13T05:41:38.122Z,11.34
2023-05-13T05:44:04.506Z,11.36
2023-05-13T05:46:31.126Z,11.41
2023-05-13T05:48:57.819Z,11.53
2023-05-13T05:51:24.213Z,11.56
2023-05-13T05:53:50.566Z,11.55
2023-05-13T05:56:16.907Z,11.39
2023-05-13T05:58:45.788Z,11.28
2023-05-13T06:01:12.228Z,11.33
2023-05-13T06:03:38.963Z,11.43
2023-05-13T06:06:07.221Z,11.51
2023-05-13T06:08:33.617Z,11.65
2023-05-13T06:10:59.958Z,11.73
2023-05-13T06:13:26.342Z,11.76
2023-05-13T06:15:55.614Z,11.76
2023-05-13T06:18:22.064Z,11.80
2023-05-13T06:20:48.798Z,11.86
2023-05-13T06:23:19.214Z,11.91
2023-05-13T06:25:45.546Z,12.02
2023-05-13T06:28:11.926Z,12.04
2023-05-13T06:30:38.652Z,12.11
2023-05-13T06:33:05.137Z,12.09
2023-05-13T06:35:31.874Z,12.13
2023-05-13T06:37:58.626Z,11.91
2023-05-13T06:40:25.457Z,11.74
2023-05-13T06:42:54.086Z,11.74
2023-05-13T06:45:22.943Z,11.88
2023-05-13T06:47:49.305Z,11.94
2023-05-13T06:50:16.014Z,11.95
2023-05-13T06:52:43.473Z,12.12
2023-05-13T06:55:09.973Z,12.28
2023-05-13T06:57:43.002Z,12.43
2023-05-13T07:00:09.913Z,12.54
2023-05-13T07:02:38.513Z,12.64
2023-05-13T07:05:04.987Z,12.75
2023-05-13T07:07:31.447Z,12.70
2023-05-13T07:09:57.838Z,12.53
2023-05-13T07:12:24.258Z,12.32
2023-05-13T07:14:50.616Z,12.16
2023-05-13T07:17:17.177Z,12.01
2023-05-13T07:19:44.759Z,11.80
2023-05-13T07:22:11.109Z,11.85
2023-05-13T07:24:37.491Z,11.92
2023-05-13T07:27:03.963Z,12.14
2023-05-13T07:29:30.351Z,12.27
2023-05-13T07:31:56.961Z,12.39
2023-05-13T07:34:26.182Z,12.41
2023-05-13T07:36:52.591Z,12.44
2023-05-13T07:39:20.105Z,12.53
2023-05-13T07:41:46.489Z,12.34
2023-05-13T07:44:12.870Z,12.29
2023-05-13T07:46:39.343Z,12.39
2023-05-13T07:49:05.814Z,12.57
2023-05-13T07:51:32.561Z,12.75
2023-05-13T07:53:58.973Z,12.79
2023-05-13T07:56:25.795Z,12.70
2023-05-13T07:58:54.470Z,12.60
2023-05-13T08:01:20.809Z,12.44
2023-05-13T08:03:48.180Z,12.54
2023-05-13T08:06:14.669Z,12.73
2023-05-13T08:08:43.336Z,12.95
2023-05-13T08:11:09.680Z,13.09
2023-05-13T08:13:38.178Z,13.31
2023-05-13T08:16:04.765Z,13.36
2023-05-13T08:18:31.668Z,13.36
2023-05-13T08:20:58.336Z,13.39
2023-05-13T08:23:33.511Z,13.53
2023-05-13T08:26:10.149Z,13.49
2023-05-13T08:28:36.489Z,13.41
2023-05-13T08:31:02.838Z,13.25
2023-05-13T08:33:29.243Z,13.28
2023-05-13T08:35:57.529Z,13.35
2023-05-13T08:38:24.098Z,13.06
2023-05-13T08:40:50.516Z,12.62
2023-05-13T08:43:17.021Z,12.77
2023-05-13T08:45:44.604Z,13.11
2023-05-13T08:48:11.028Z,13.19
2023-05-13T08:50:37.452Z,12.90
2023-05-13T08:53:04.160Z,12.68
2023-05-13T08:55:30.551Z,12.72
2023-05-13T08:57:57.041Z,12.77
2023-05-13T09:00:23.804Z,13.16
2023-05-13T09:02:52.803Z,13.49
2023-05-13T09:05:19.464Z,13.95
2023-05-13T09:07:45.961Z,13.90
2023-05-13T09:10:12.495Z,14.09
2023-05-13T09:12:38.843Z,14.53
2023-05-13T09:15:05.999Z,14.96
2023-05-13T09:17:32.450Z,15.23
2023-05-13T09:19:58.962Z,15.38
2023-05-13T09:22:25.368Z,14.78
2023-05-13T09:24:52.515Z,13.96
2023-05-13T09:27:19.984Z,14.26
2023-05-13T09:29:46.814Z,14.62
2023-05-13T09:32:13.295Z,14.78
2023-05-13T09:34:39.857Z,15.03
2023-05-13T09:37:06.253Z,15.39
2023-05-13T09:39:33.767Z,15.91
2023-05-13T09:42:01.724Z,16.22
2023-05-13T09:44:29.831Z,16.17
2023-05-13T09:46:56.457Z,16.58
2023-05-13T09:49:23.032Z,16.82
2023-05-13T09:51:49.522Z,16.07
2023-05-13T09:54:18.371Z,15.40
2023-05-13T09:56:44.757Z,15.32
2023-05-13T09:59:11.254Z,15.61
2023-05-13T10:01:37.847Z,15.78
2023-05-13T10:04:04.287Z,15.78
2023-05-13T10:06:30.905Z,15.89
2023-05-13T10:08:57.326Z,16.03
2023-05-13T10:11:24.715Z,16.32
2023-05-13T10:13:51.371Z,16.48
2023-05-13T10:16:17.848Z,16.37
2023-05-13T10:18:44.249Z,16.13
2023-05-13T10:21:10.593Z,16.38
2023-05-13T10:23:39.771Z,16.64
2023-05-13T10:26:06.515Z,16.29
2023-05-13T10:28:35.240Z,16.88
2023-05-13T10:31:04.345Z,17.12
2023-05-13T10:33:30.776Z,17.28
2023-05-13T10:35:57.494Z,17.34
2023-05-13T10:38:23.838Z,17.53
2023-05-13T10:40:50.296Z,17.61
2023-05-13T10:43:16.687Z,17.97
2023-05-13T10:45:43.030Z,17.96
2023-05-13T10:48:11.797Z,17.64
2023-05-13T10:50:38.262Z,17.84
2023-05-13T10:53:04.920Z,17.87
2023-05-13T10:55:34.034Z,16.94
2023-05-13T10:58:00.628Z,17.06
2023-05-13T11:00:27.434Z,17.02
2023-05-13T11:02:53.901Z,17.11
2023-05-13T11:05:20.378Z,16.78
2023-05-13T11:07:46.800Z,16.66
2023-05-13T11:10:13.189Z,16.68
2023-05-13T11:12:39.574Z,16.70
2023-05-13T11:15:05.970Z,17.12
2023-05-13T11:17:33.553Z,17.38
2023-05-13T11:20:00.025Z,17.48
2023-05-13T11:22:26.501Z,17.27
2023-05-13T11:24:53.219Z,16.87
2023-05-13T11:27:19.667Z,16.15
2023-05-13T11:29:46.466Z,16.48
2023-05-13T11:32:12.822Z,16.86
2023-05-13T11:34:39.200Z,16.44
2023-05-13T11:37:05.585Z,16.85
2023-05-13T11:39:34.654Z,17.31
2023-05-13T11:42:01.555Z,17.64
2023-05-13T11:44:28.002Z,17.67
2023-05-13T11:46:57.262Z,17.65
2023-05-13T11:49:23.713Z,17.50
2023-05-13T11:51:51.242Z,17.88
2023-05-13T11:54:17.578Z,18.09
2023-05-13T11:56:45.105Z,18.14
2023-05-13T11:59:11.452Z,18.45
2023-05-13T12:01:38.171Z,18.52
2023-05-13T12:04:05.568Z,18.65
2023-05-13T12:06:32.135Z,18.60
2023-05-13T12:08:58.630Z,17.07
2023-05-13T12:11:25.004Z,16.25
2023-05-13T12:13:51.591Z,16.35
2023-05-13T12:16:18.024Z,16.77
2023-05-13T12:18:44.622Z,17.09
2023-05-13T12:21:11.033Z,17.19
2023-05-13T12:23:37.518Z,17.20
2023-05-13T12:26:03.907Z,17.05
2023-05-13T12:28:30.272Z,17.32
2023-05-13T12:30:56.839Z,17.25
2023-05-13T12:33:23.252Z,17.38
2023-05-13T12:35:49.622Z,16.99
2023-05-13T12:38:15.966Z,16.64
2023-05-13T12:40:42.289Z,17.22
2023-05-13T12:43:08.616Z,17.03
2023-05-13T12:45:37.021Z,16.70
2023-05-13T12:48:05.179Z,16.84
2023-05-13T12:50:31.620Z,17.17
2023-05-13T12:52:58.061Z,16.82
2023-05-13T12:55:24.592Z,15.70
2023-05-13T12:57:51.077Z,15.29
2023-05-13T13:00:17.414Z,15.19
2023-05-13T13:02:44.072Z,15.49
2023-05-13T13:05:10.565Z,15.41
2023-05-13T13:07:36.941Z,15.35
2023-05-13T13:10:03.272Z,16.15
2023-05-13T13:12:29.630Z,16.41
2023-05-13T13:14:55.967Z,16.55
2023-05-13T13:17:22.458Z,15.97
2023-05-13T13:19:48.888Z,15.11
2023-05-13T13:22:15.273Z,15.01
2023-05-13T13:24:41.595Z,14.81
2023-05-13T13:27:07.971Z,14.90
2023-05-13T13:29:34.315Z,14.94
2023-05-13T13:32:00.688Z,15.49
2023-05-13T13:34:27.058Z,15.88
2023-05-13T13:36:53.436Z,15.73
2023-05-13T13:39:21.964Z,15.75
2023-05-13T13:41:48.287Z,15.88
2023-05-13T13:44:14.659Z,16.30
2023-05-13T13:46:41.037Z,16.39
2023-05-13T13:49:20.344Z,16.22
2023-05-13T13:51:49.908Z,15.66
2023-05-13T13:54:16.246Z,15.60
2023-05-13T13:56:42.617Z,15.69
2023-05-13T13:59:08.974Z,15.94
2023-05-13T14:01:35.356Z,15.90
2023-05-13T14:04:01.718Z,15.83
2023-05-13T14:06:28.159Z,15.86
2023-05-13T14:08:56.794Z,15.88
2023-05-13T14:11:23.127Z,15.90
2023-05-13T14:13:49.499Z,15.95
2023-05-13T14:16:16.894Z,15.82
2023-05-13T14:18:46.129Z,15.45
2023-05-13T14:21:12.660Z,15.11
2023-05-13T14:23:39.815Z,14.84
2023-05-13T14:26:06.239Z,14.25
2023-05-13T14:28:32.643Z,13.68
2023-05-13T14:30:58.993Z,13.60
2023-05-13T14:33:25.368Z,13.57
2023-05-13T14:35:51.712Z,13.57
2023-05-13T14:38:18.039Z,13.54
2023-05-13T14:40:44.420Z,13.34
2023-05-13T14:43:10.812Z,13.28
2023-05-13T14:45:37.202Z,13.22
2023-05-13T14:48:06.085Z,13.17
2023-05-13T14:50:32.438Z,13.21
2023-05-13T14:52:59.135Z,13.19
2023-05-13T14:55:25.495Z,13.12
2023-05-13T14:57:51.833Z,13.02
2023-05-13T15:00:18.401Z,12.95
2023-05-13T15:02:44.863Z,12.86
2023-05-13T15:05:11.556Z,12.78
2023-05-13T15:07:37.914Z,12.73
2023-05-13T15:10:04.304Z,12.83
2023-05-13T15:12:30.713Z,12.91
2023-05-13T15:14:57.116Z,12.94
2023-05-13T15:17:23.765Z,12.92
2023-05-13T15:19:50.243Z,12.93
2023-05-13T15:22:16.777Z,12.85
2023-05-13T15:24:45.486Z,12.65
2023-05-13T15:27:11.956Z,12.59
2023-05-13T15:29:38.371Z,12.55
2023-05-13T15:32:04.762Z,12.61
2023-05-13T15:34:31.612Z,12.72
2023-05-13T15:36:57.970Z,12.81
2023-05-13T15:39:24.346Z,12.79
2023-05-13T15:41:50.748Z,12.79
2023-05-13T15:44:17.112Z,12.78
2023-05-13T15:46:45.277Z,12.79
2023-05-13T15:49:13.317Z,12.76
2023-05-13T15:51:39.792Z,12.80
2023-05-13T15:54:06.132Z,12.78
2023-05-13T15:56:32.540Z,12.79
2023-05-13T15:59:01.015Z,12.72
2023-05-13T16:01:27.462Z,12.70
2023-05-13T16:03:53.837Z,12.56
2023-05-13T16:06:20.546Z,12.48
2023-05-13T16:08:46.914Z,12.58
2023-05-13T16:11:13.360Z,12.62
2023-05-13T16:13:42.036Z,12.64
2023-05-13T16:16:09.494Z,12.68
2023-05-13T16:18:35.991Z,12.74
2023-05-13T16:21:02.379Z,12.70
2023-05-13T16:23:28.796Z,12.64
2023-05-13T16:25:56.360Z,12.60
2023-05-13T16:28:22.966Z,12.60
2023-05-13T16:30:49.317Z,12.61
2023-05-13T16:33:15.665Z,12.61
2023-05-13T16:35:42.046Z,12.65
2023-05-13T16:38:08.424Z,12.72
2023-05-13T16:40:34.909Z,12.73
2023-05-13T16:43:03.747Z,12.77
2023-05-13T16:45:30.471Z,12.80
2023-05-13T16:47:58.076Z,12.83
2023-05-13T16:50:24.787Z,12.83
2023-05-13T16:52:51.404Z,12.85
2023-05-13T16:55:17.814Z,12.80
2023-05-13T16:57:44.194Z,12.80
2023-05-13T17:00:10.580Z,12.79
2023-05-13T17:02:37.082Z,12.80
2023-05-13T17:05:06.914Z,12.78
2023-05-13T17:07:33.331Z,12.79
2023-05-13T17:09:59.715Z,12.88
2023-05-13T17:12:26.366Z,12.87
2023-05-13T17:14:52.757Z,12.84
2023-05-13T17:17:21.568Z,12.75
2023-05-13T17:19:47.950Z,12.72
2023-05-13T17:22:14.652Z,12.68
2023-05-13T17:24:41.860Z,12.66
2023-05-13T17:27:08.328Z,12.59
2023-05-13T17:29:35.710Z,12.63
2023-05-13T17:32:02.066Z,12.75
2023-05-13T17:34:28.455Z,12.81
2023-05-13T17:36:54.914Z,12.78
2023-05-13T17:39:21.377Z,12.73
2023-05-13T17:41:47.869Z,12.76
2023-05-13T17:44:14.209Z,12.79
2023-05-13T17:46:40.821Z,12.77
2023-05-13T17:49:07.257Z,12.58
2023-05-13T17:51:33.793Z,12.47
2023-05-13T17:54:00.434Z,12.54
2023-05-13T17:56:26.889Z,12.62
2023-05-13T17:58:55.769Z,12.65
2023-05-13T18:01:22.484Z,12.30
2023-05-13T18:03:48.895Z,12.07
2023-05-13T18:06:16.600Z,12.10
2023-05-13T18:08:43.160Z,12.21
2023-05-13T18:11:09.578Z,12.32
2023-05-13T18:13:35.985Z,12.35
2023-05-13T18:16:02.399Z,12.30
2023-05-13T18:18:28.852Z,12.22
2023-05-13T18:20:55.717Z,12.24
2023-05-13T18:23:23.647Z,12.28
2023-05-13T18:25:55.935Z,12.32
2023-05-13T18:28:23.792Z,12.30
2023-05-13T18:30:50.208Z,12.25
2023-05-13T18:33:16.611Z,12.31
2023-05-13T18:35:43.022Z,12.37
2023-05-13T18:38:09.486Z,12.32
2023-05-13T18:40:36.197Z,12.29
2023-05-13T18:43:02.646Z,12.33
2023-05-13T18:45:29.121Z,12.29
2023-05-13T18:47:55.719Z,12.28
2023-05-13T18:50:22.496Z,12.31
2023-05-13T18:52:49.173Z,12.37
2023-05-13T18:55:15.668Z,12.32
2023-05-13T18:57:42.026Z,12.32
2023-05-13T19:00:08.718Z,12.20
2023-05-13T19:02:35.435Z,12.15
2023-05-13T19:05:02.400Z,12.14
2023-05-13T19:07:28.751Z,12.17
2023-05-13T19:09:56.458Z,12.21
2023-05-13T19:12:23.019Z,12.16
2023-05-13T19:14:49.626Z,12.03
2023-05-13T19:17:17.025Z,12.01
2023-05-13T19:19:44.051Z,12.04
2023-05-13T19:22:12.943Z,12.08
2023-05-13T19:24:39.444Z,12.04
2023-05-13T19:27:09.217Z,11.91
2023-05-13T19:29:35.814Z,11.93
2023-05-13T19:32:02.605Z,12.02
2023-05-13T19:34:29.048Z,12.07
2023-05-13T19:36:55.508Z,12.10
2023-05-13T19:39:27.385Z,12.13
2023-05-13T19:41:53.953Z,12.16
2023-05-13T19:44:20.361Z,12.18
2023-05-13T19:46:47.359Z,11.95
2023-05-13T19:49:13.946Z,11.81
2023-05-13T19:51:40.661Z,11.86
2023-05-13T19:54:07.149Z,11.90
2023-05-13T19:56:33.498Z,11.98
2023-05-13T19:59:00.058Z,11.94
2023-05-13T20:01:27.006Z,11.83
2023-05-13T20:03:53.663Z,11.82
2023-05-13T20:06:20.172Z,11.87
2023-05-13T20:08:46.645Z,11.92
2023-05-13T20:11:16.013Z,11.95
2023-05-13T20:13:42.394Z,11.98
2023-05-13T20:16:09.800Z,12.03
2023-05-13T20:18:36.179Z,12.01
2023-05-13T20:21:04.083Z,12.02
2023-05-13T20:23:30.442Z,11.98
2023-05-13T20:25:57.518Z,12.00
2023-05-13T20:28:24.145Z,11.99
2023-05-13T20:30:53.144Z,11.96
2023-05-13T20:33:19.585Z,11.98
2023-05-13T20:35:45.968Z,11.97
2023-05-13T20:38:12.369Z,11.93
2023-05-13T20:40:38.757Z,11.94
2023-05-13T20:43:07.560Z,11.86
2023-05-13T20:45:34.283Z,11.84
2023-05-13T20:48:00.673Z,11.79
2023-05-13T20:50:29.620Z,11.77
2023-05-13T20:52:55.995Z,11.78
2023-05-13T20:55:22.801Z,11.82
2023-05-13T20:57:49.316Z,11.78
2023-05-13T21:00:21.180Z,11.73
2023-05-13T21:02:48.194Z,11.68
2023-05-13T21:05:14.609Z,11.63
2023-05-13T21:07:41.017Z,11.59
2023-05-13T21:10:08.969Z,11.57
2023-05-13T21:12:40.044Z,11.53
2023-05-13T21:15:06.946Z,11.48
2023-05-13T21:17:33.343Z,11.46
2023-05-13T21:20:01.358Z,11.41
2023-05-13T21:22:27.854Z,11.38
2023-05-13T21:24:55.780Z,11.42
2023-05-13T21:27:22.170Z,11.46
2023-05-13T21:29:48.542Z,11.45
2023-05-13T21:32:14.911Z,11.46
2023-05-13T21:34:41.835Z,11.43
2023-05-13T21:37:08.381Z,11.38
2023-05-13T21:39:35.072Z,11.36
2023-05-13T21:42:01.401Z,11.37
2023-05-13T21:44:28.305Z,11.42
2023-05-13T21:46:54.676Z,11.46
2023-05-13T21:49:21.339Z,11.49
2023-05-13T21:51:48.077Z,11.51
2023-05-13T21:54:17.227Z,11.52
2023-05-13T21:59:24.317Z,11.50
2023-05-13T22:01:50.940Z,11.51
2023-05-13T22:04:18.833Z,11.49
2023-05-13T22:06:48.799Z,11.54
2023-05-13T22:09:17.695Z,11.57
2023-05-13T22:11:44.937Z,11.59
2023-05-13T22:14:11.416Z,11.58
2023-05-13T22:16:37.987Z,11.59
2023-05-13T22:19:06.942Z,11.60
2023-05-13T22:21:36.814Z,11.62
2023-05-13T22:24:03.316Z,11.61
2023-05-13T22:26:30.248Z,11.58
2023-05-13T22:28:59.193Z,11.57
2023-05-13T22:31:25.860Z,11.58
2023-05-13T22:33:52.775Z,11.62
2023-05-13T22:36:19.192Z,11.59
2023-05-13T22:38:46.146Z,11.60
2023-05-13T22:41:17.751Z,11.58
